Terminal Aerodrome Forecast
Issued by NWS

Home | Current Version | Previous Version | Text Only | Print | Product List | Glossary On
Versions: 1 2 3 4 5 6 7 8 9 10 11 12 13 14 15 16 17 18 19 20 21 22 23 24 25 26 27 28 29 30 31 32 33 34
113
FTUS43 KILX 171725
TAFBMI
TAF
KBMI 171725Z 1718/1818 26013G18KT 4SM BR OVC003
     FM180700 28008KT 4SM BR OVC003
     FM181200 27006KT 2SM BR BKN003
     FM181700 23006KT P6SM SCT015=

USA.gov is the U.S. government's official web portal to all federal, state and local government web resources and services.